sensor_id;sensor_type;location;lat;lon;timestamp;P1;durP1;ratioP1;P2;durP2;ratioP2
12059;SDS011;6091;51.432;6.880;2023-07-08T00:00:53;1.48;;;1.38;;
12059;SDS011;6091;51.432;6.880;2023-07-08T00:03:21;1.50;;;1.40;;
12059;SDS011;6091;51.432;6.880;2023-07-08T00:05:48;1.55;;;1.40;;
12059;SDS011;6091;51.432;6.880;2023-07-08T00:08:21;1.38;;;1.27;;
12059;SDS011;6091;51.432;6.880;2023-07-08T00:10:48;1.48;;;1.38;;
12059;SDS011;6091;51.432;6.880;2023-07-08T00:13:15;1.58;;;1.48;;
12059;SDS011;6091;51.432;6.880;2023-07-08T00:15:45;1.45;;;1.35;;
12059;SDS011;6091;51.432;6.880;2023-07-08T00:18:13;1.50;;;1.40;;
12059;SDS011;6091;51.432;6.880;2023-07-08T00:20:44;1.65;;;1.50;;
12059;SDS011;6091;51.432;6.880;2023-07-08T00:23:16;1.50;;;1.40;;
12059;SDS011;6091;51.432;6.880;2023-07-08T00:25:48;1.40;;;1.30;;
12059;SDS011;6091;51.432;6.880;2023-07-08T00:28:17;1.50;;;1.40;;
12059;SDS011;6091;51.432;6.880;2023-07-08T00:30:46;1.75;;;1.33;;
12059;SDS011;6091;51.432;6.880;2023-07-08T00:33:14;1.55;;;1.45;;
12059;SDS011;6091;51.432;6.880;2023-07-08T00:35:43;1.42;;;1.33;;
12059;SDS011;6091;51.432;6.880;2023-07-08T00:51:31;1.50;;;1.40;;
12059;SDS011;6091;51.432;6.880;2023-07-08T00:54:04;1.33;;;1.23;;
12059;SDS011;6091;51.432;6.880;2023-07-08T00:56:42;1.70;;;1.60;;
12059;SDS011;6091;51.432;6.880;2023-07-08T00:59:35;1.92;;;1.35;;
12059;SDS011;6091;51.432;6.880;2023-07-08T01:02:15;1.48;;;1.38;;
12059;SDS011;6091;51.432;6.880;2023-07-08T01:04:50;1.40;;;1.30;;
12059;SDS011;6091;51.432;6.880;2023-07-08T01:07:26;1.48;;;1.38;;
12059;SDS011;6091;51.432;6.880;2023-07-08T01:09:57;1.40;;;1.30;;
12059;SDS011;6091;51.432;6.880;2023-07-08T01:12:35;1.45;;;1.35;;
12059;SDS011;6091;51.432;6.880;2023-07-08T01:15:09;1.55;;;1.42;;
12059;SDS011;6091;51.432;6.880;2023-07-08T01:17:37;1.40;;;1.30;;
12059;SDS011;6091;51.432;6.880;2023-07-08T01:20:05;1.30;;;1.20;;
12059;SDS011;6091;51.432;6.880;2023-07-08T01:22:36;1.48;;;1.38;;
12059;SDS011;6091;51.432;6.880;2023-07-08T01:25:05;1.65;;;1.42;;
12059;SDS011;6091;51.432;6.880;2023-07-08T01:27:39;1.42;;;1.33;;
12059;SDS011;6091;51.432;6.880;2023-07-08T01:30:14;1.55;;;1.45;;
12059;SDS011;6091;51.432;6.880;2023-07-08T01:32:45;1.48;;;1.38;;
12059;SDS011;6091;51.432;6.880;2023-07-08T01:35:16;1.50;;;1.40;;
12059;SDS011;6091;51.432;6.880;2023-07-08T01:37:47;1.30;;;1.20;;
12059;SDS011;6091;51.432;6.880;2023-07-08T01:40:30;1.45;;;1.33;;
12059;SDS011;6091;51.432;6.880;2023-07-08T01:43:01;1.42;;;1.27;;
12059;SDS011;6091;51.432;6.880;2023-07-08T01:45:36;1.30;;;1.20;;
12059;SDS011;6091;51.432;6.880;2023-07-08T01:48:08;1.20;;;1.10;;
12059;SDS011;6091;51.432;6.880;2023-07-08T01:50:45;1.60;;;1.50;;
12059;SDS011;6091;51.432;6.880;2023-07-08T01:53:30;1.50;;;1.40;;
12059;SDS011;6091;51.432;6.880;2023-07-08T01:56:07;1.50;;;1.40;;
12059;SDS011;6091;51.432;6.880;2023-07-08T01:58:36;1.50;;;1.40;;
12059;SDS011;6091;51.432;6.880;2023-07-08T02:01:04;1.40;;;1.30;;
12059;SDS011;6091;51.432;6.880;2023-07-08T02:03:31;1.45;;;1.35;;
12059;SDS011;6091;51.432;6.880;2023-07-08T02:05:59;1.20;;;1.20;;
12059;SDS011;6091;51.432;6.880;2023-07-08T02:08:26;1.70;;;1.60;;
12059;SDS011;6091;51.432;6.880;2023-07-08T02:10:57;1.55;;;1.40;;
12059;SDS011;6091;51.432;6.880;2023-07-08T02:13:25;1.10;;;1.10;;
12059;SDS011;6091;51.432;6.880;2023-07-08T02:15:52;1.40;;;1.30;;
12059;SDS011;6091;51.432;6.880;2023-07-08T02:18:20;1.40;;;1.30;;
12059;SDS011;6091;51.432;6.880;2023-07-08T02:20:47;1.30;;;1.20;;
12059;SDS011;6091;51.432;6.880;2023-07-08T02:23:14;1.40;;;1.30;;
12059;SDS011;6091;51.432;6.880;2023-07-08T02:25:41;1.40;;;1.30;;
12059;SDS011;6091;51.432;6.880;2023-07-08T02:28:19;1.38;;;1.27;;
12059;SDS011;6091;51.432;6.880;2023-07-08T02:30:46;1.75;;;1.13;;
12059;SDS011;6091;51.432;6.880;2023-07-08T02:33:14;1.70;;;1.60;;
12059;SDS011;6091;51.432;6.880;2023-07-08T02:35:44;1.35;;;1.25;;
12059;SDS011;6091;51.432;6.880;2023-07-08T02:38:12;1.70;;;1.60;;
12059;SDS011;6091;51.432;6.880;2023-07-08T02:40:39;1.50;;;1.40;;
12059;SDS011;6091;51.432;6.880;2023-07-08T02:43:06;1.42;;;1.33;;
12059;SDS011;6091;51.432;6.880;2023-07-08T02:45:33;1.45;;;1.35;;
12059;SDS011;6091;51.432;6.880;2023-07-08T02:48:00;1.33;;;1.23;;
12059;SDS011;6091;51.432;6.880;2023-07-08T02:50:27;1.55;;;1.40;;
12059;SDS011;6091;51.432;6.880;2023-07-08T02:52:54;1.30;;;1.20;;
12059;SDS011;6091;51.432;6.880;2023-07-08T02:55:21;1.77;;;1.35;;
12059;SDS011;6091;51.432;6.880;2023-07-08T02:57:48;1.40;;;1.30;;
12059;SDS011;6091;51.432;6.880;2023-07-08T03:00:15;1.40;;;1.30;;
12059;SDS011;6091;51.432;6.880;2023-07-08T03:02:43;1.40;;;1.30;;
12059;SDS011;6091;51.432;6.880;2023-07-08T03:05:10;1.50;;;1.40;;
12059;SDS011;6091;51.432;6.880;2023-07-08T03:07:37;1.58;;;1.48;;
12059;SDS011;6091;51.432;6.880;2023-07-08T03:10:04;1.40;;;1.30;;
12059;SDS011;6091;51.432;6.880;2023-07-08T03:12:32;1.50;;;1.40;;
12059;SDS011;6091;51.432;6.880;2023-07-08T03:14:59;1.60;;;1.50;;
12059;SDS011;6091;51.432;6.880;2023-07-08T03:17:26;1.58;;;1.48;;
12059;SDS011;6091;51.432;6.880;2023-07-08T03:19:53;1.30;;;1.20;;
12059;SDS011;6091;51.432;6.880;2023-07-08T03:22:20;1.70;;;1.60;;
12059;SDS011;6091;51.432;6.880;2023-07-08T03:24:47;1.50;;;1.40;;
12059;SDS011;6091;51.432;6.880;2023-07-08T03:27:14;1.20;;;1.10;;
12059;SDS011;6091;51.432;6.880;2023-07-08T03:29:42;1.73;;;1.63;;
12059;SDS011;6091;51.432;6.880;2023-07-08T03:32:10;1.58;;;1.48;;
12059;SDS011;6091;51.432;6.880;2023-07-08T03:34:41;1.77;;;1.67;;
12059;SDS011;6091;51.432;6.880;2023-07-08T03:37:09;1.45;;;1.35;;
12059;SDS011;6091;51.432;6.880;2023-07-08T03:39:36;1.60;;;1.50;;
12059;SDS011;6091;51.432;6.880;2023-07-08T03:42:04;1.65;;;1.55;;
12059;SDS011;6091;51.432;6.880;2023-07-08T03:44:31;1.63;;;1.52;;
12059;SDS011;6091;51.432;6.880;2023-07-08T03:46:58;1.67;;;1.58;;
12059;SDS011;6091;51.432;6.880;2023-07-08T03:49:26;1.70;;;1.60;;
12059;SDS011;6091;51.432;6.880;2023-07-08T03:51:53;1.35;;;1.25;;
12059;SDS011;6091;51.432;6.880;2023-07-08T03:54:21;1.50;;;1.40;;
12059;SDS011;6091;51.432;6.880;2023-07-08T03:56:51;1.75;;;1.65;;
12059;SDS011;6091;51.432;6.880;2023-07-08T03:59:18;1.60;;;1.50;;
12059;SDS011;6091;51.432;6.880;2023-07-08T04:01:46;1.40;;;1.30;;
12059;SDS011;6091;51.432;6.880;2023-07-08T04:04:14;1.40;;;1.30;;
12059;SDS011;6091;51.432;6.880;2023-07-08T04:06:42;1.60;;;1.50;;
12059;SDS011;6091;51.432;6.880;2023-07-08T04:09:11;1.50;;;1.40;;
12059;SDS011;6091;51.432;6.880;2023-07-08T04:11:39;1.63;;;1.52;;
12059;SDS011;6091;51.432;6.880;2023-07-08T04:14:07;1.45;;;1.35;;
12059;SDS011;6091;51.432;6.880;2023-07-08T04:16:58;1.33;;;1.27;;
12059;SDS011;6091;51.432;6.880;2023-07-08T04:19:25;1.80;;;1.70;;
12059;SDS011;6091;51.432;6.880;2023-07-08T04:21:53;1.50;;;1.40;;
12059;SDS011;6091;51.432;6.880;2023-07-08T04:24:20;1.45;;;1.35;;
12059;SDS011;6091;51.432;6.880;2023-07-08T04:26:47;1.70;;;1.60;;
12059;SDS011;6091;51.432;6.880;2023-07-08T04:29:16;1.52;;;1.40;;
12059;SDS011;6091;51.432;6.880;2023-07-08T04:31:46;1.85;;;1.30;;
12059;SDS011;6091;51.432;6.880;2023-07-08T04:34:14;1.42;;;1.33;;
12059;SDS011;6091;51.432;6.880;2023-07-08T04:36:43;1.45;;;1.35;;
12059;SDS011;6091;51.432;6.880;2023-07-08T04:39:11;1.35;;;1.25;;
12059;SDS011;6091;51.432;6.880;2023-07-08T04:41:39;1.52;;;1.27;;
12059;SDS011;6091;51.432;6.880;2023-07-08T04:44:08;1.58;;;1.48;;
12059;SDS011;6091;51.432;6.880;2023-07-08T04:49:17;1.40;;;1.30;;
12059;SDS011;6091;51.432;6.880;2023-07-08T04:51:46;1.67;;;1.58;;
12059;SDS011;6091;51.432;6.880;2023-07-08T04:54:13;1.60;;;1.50;;
12059;SDS011;6091;51.432;6.880;2023-07-08T04:56:42;1.58;;;1.48;;
12059;SDS011;6091;51.432;6.880;2023-07-08T04:59:16;1.67;;;1.58;;
12059;SDS011;6091;51.432;6.880;2023-07-08T05:01:45;1.33;;;1.23;;
12059;SDS011;6091;51.432;6.880;2023-07-08T05:04:16;1.00;;;1.00;;
12059;SDS011;6091;51.432;6.880;2023-07-08T05:06:45;1.42;;;1.33;;
12059;SDS011;6091;51.432;6.880;2023-07-08T05:09:14;1.90;;;1.70;;
12059;SDS011;6091;51.432;6.880;2023-07-08T05:11:43;1.50;;;1.40;;
12059;SDS011;6091;51.432;6.880;2023-07-08T05:14:11;1.40;;;1.30;;
12059;SDS011;6091;51.432;6.880;2023-07-08T05:16:39;1.08;;;1.08;;
12059;SDS011;6091;51.432;6.880;2023-07-08T05:19:07;1.50;;;1.40;;
12059;SDS011;6091;51.432;6.880;2023-07-08T05:21:35;1.75;;;1.65;;
12059;SDS011;6091;51.432;6.880;2023-07-08T05:24:02;1.42;;;1.33;;
12059;SDS011;6091;51.432;6.880;2023-07-08T05:26:31;1.35;;;1.25;;
12059;SDS011;6091;51.432;6.880;2023-07-08T05:28:59;1.55;;;1.45;;
12059;SDS011;6091;51.432;6.880;2023-07-08T05:31:27;1.38;;;1.27;;
12059;SDS011;6091;51.432;6.880;2023-07-08T05:33:58;2.13;;;1.50;;
12059;SDS011;6091;51.432;6.880;2023-07-08T05:36:25;1.42;;;1.33;;
12059;SDS011;6091;51.432;6.880;2023-07-08T05:38:52;1.50;;;1.40;;
12059;SDS011;6091;51.432;6.880;2023-07-08T05:41:19;1.50;;;1.40;;
12059;SDS011;6091;51.432;6.880;2023-07-08T05:43:46;1.50;;;1.40;;
12059;SDS011;6091;51.432;6.880;2023-07-08T05:46:14;1.90;;;1.60;;
12059;SDS011;6091;51.432;6.880;2023-07-08T05:48:41;1.73;;;1.63;;
12059;SDS011;6091;51.432;6.880;2023-07-08T05:51:08;1.52;;;1.42;;
12059;SDS011;6091;51.432;6.880;2023-07-08T05:53:35;1.35;;;1.25;;
12059;SDS011;6091;51.432;6.880;2023-07-08T05:56:03;1.60;;;1.50;;
12059;SDS011;6091;51.432;6.880;2023-07-08T05:58:30;1.35;;;1.25;;
12059;SDS011;6091;51.432;6.880;2023-07-08T06:00:58;1.38;;;1.27;;
12059;SDS011;6091;51.432;6.880;2023-07-08T06:03:27;1.60;;;1.50;;
12059;SDS011;6091;51.432;6.880;2023-07-08T06:05:54;1.45;;;1.35;;
12059;SDS011;6091;51.432;6.880;2023-07-08T06:08:21;1.40;;;1.30;;
12059;SDS011;6091;51.432;6.880;2023-07-08T06:10:49;2.55;;;1.48;;
12059;SDS011;6091;51.432;6.880;2023-07-08T06:13:17;1.38;;;1.27;;
12059;SDS011;6091;51.432;6.880;2023-07-08T06:15:44;1.70;;;1.33;;
12059;SDS011;6091;51.432;6.880;2023-07-08T06:18:11;1.60;;;1.50;;
12059;SDS011;6091;51.432;6.880;2023-07-08T06:20:39;1.27;;;1.23;;
12059;SDS011;6091;51.432;6.880;2023-07-08T06:23:06;1.52;;;1.42;;
12059;SDS011;6091;51.432;6.880;2023-07-08T06:25:33;1.40;;;1.30;;
12059;SDS011;6091;51.432;6.880;2023-07-08T06:28:00;1.48;;;1.38;;
12059;SDS011;6091;51.432;6.880;2023-07-08T06:30:27;1.50;;;1.38;;
12059;SDS011;6091;51.432;6.880;2023-07-08T06:32:54;1.60;;;1.50;;
12059;SDS011;6091;51.432;6.880;2023-07-08T06:35:22;1.67;;;1.58;;
12059;SDS011;6091;51.432;6.880;2023-07-08T06:37:49;1.60;;;1.50;;
12059;SDS011;6091;51.432;6.880;2023-07-08T06:40:17;1.55;;;1.45;;
12059;SDS011;6091;51.432;6.880;2023-07-08T06:42:45;1.67;;;1.58;;
12059;SDS011;6091;51.432;6.880;2023-07-08T06:45:13;1.42;;;1.33;;
12059;SDS011;6091;51.432;6.880;2023-07-08T06:47:40;1.40;;;1.30;;
12059;SDS011;6091;51.432;6.880;2023-07-08T06:50:08;1.60;;;1.50;;
12059;SDS011;6091;51.432;6.880;2023-07-08T06:52:35;3.33;;;1.50;;
12059;SDS011;6091;51.432;6.880;2023-07-08T06:55:04;2.55;;;1.63;;
12059;SDS011;6091;51.432;6.880;2023-07-08T06:57:34;2.03;;;1.83;;
12059;SDS011;6091;51.432;6.880;2023-07-08T07:00:07;2.05;;;1.48;;
12059;SDS011;6091;51.432;6.880;2023-07-08T07:02:37;4.05;;;1.80;;
12059;SDS011;6091;51.432;6.880;2023-07-08T07:05:05;1.52;;;1.40;;
12059;SDS011;6091;51.432;6.880;2023-07-08T07:07:32;3.38;;;2.22;;
12059;SDS011;6091;51.432;6.880;2023-07-08T07:10:01;2.30;;;2.10;;
12059;SDS011;6091;51.432;6.880;2023-07-08T07:12:29;2.25;;;1.90;;
12059;SDS011;6091;51.432;6.880;2023-07-08T07:14:56;2.95;;;2.47;;
12059;SDS011;6091;51.432;6.880;2023-07-08T07:17:23;2.80;;;1.92;;
12059;SDS011;6091;51.432;6.880;2023-07-08T07:19:54;2.92;;;2.50;;
12059;SDS011;6091;51.432;6.880;2023-07-08T07:22:21;3.40;;;2.60;;
12059;SDS011;6091;51.432;6.880;2023-07-08T07:24:48;3.85;;;3.30;;
12059;SDS011;6091;51.432;6.880;2023-07-08T07:27:16;5.65;;;2.63;;
12059;SDS011;6091;51.432;6.880;2023-07-08T07:29:47;5.97;;;2.78;;
12059;SDS011;6091;51.432;6.880;2023-07-08T07:32:17;3.45;;;2.67;;
12059;SDS011;6091;51.432;6.880;2023-07-08T07:34:48;4.00;;;2.20;;
12059;SDS011;6091;51.432;6.880;2023-07-08T07:37:17;4.88;;;2.80;;
12059;SDS011;6091;51.432;6.880;2023-07-08T07:39:47;2.88;;;2.22;;
12059;SDS011;6091;51.432;6.880;2023-07-08T07:42:15;2.50;;;2.30;;
12059;SDS011;6091;51.432;6.880;2023-07-08T07:44:44;4.30;;;2.35;;
12059;SDS011;6091;51.432;6.880;2023-07-08T07:47:12;2.70;;;2.50;;
12059;SDS011;6091;51.432;6.880;2023-07-08T07:49:42;3.33;;;2.22;;
12059;SDS011;6091;51.432;6.880;2023-07-08T07:52:09;2.90;;;2.30;;
12059;SDS011;6091;51.432;6.880;2023-07-08T07:54:39;2.42;;;2.22;;
12059;SDS011;6091;51.432;6.880;2023-07-08T07:57:06;3.15;;;2.58;;
12059;SDS011;6091;51.432;6.880;2023-07-08T07:59:33;2.72;;;2.50;;
12059;SDS011;6091;51.432;6.880;2023-07-08T08:02:00;2.45;;;2.13;;
12059;SDS011;6091;51.432;6.880;2023-07-08T08:04:27;2.55;;;1.95;;
12059;SDS011;6091;51.432;6.880;2023-07-08T08:06:54;3.35;;;2.33;;
12059;SDS011;6091;51.432;6.880;2023-07-08T08:09:21;3.15;;;2.30;;
12059;SDS011;6091;51.432;6.880;2023-07-08T08:11:49;2.40;;;2.20;;
12059;SDS011;6091;51.432;6.880;2023-07-08T08:14:18;1.90;;;1.77;;
12059;SDS011;6091;51.432;6.880;2023-07-08T08:16:45;3.47;;;2.38;;
12059;SDS011;6091;51.432;6.880;2023-07-08T08:19:12;2.40;;;2.20;;
12059;SDS011;6091;51.432;6.880;2023-07-08T08:21:39;2.60;;;2.40;;
12059;SDS011;6091;51.432;6.880;2023-07-08T08:24:06;2.03;;;1.90;;
12059;SDS011;6091;51.432;6.880;2023-07-08T08:26:33;2.10;;;1.90;;
12059;SDS011;6091;51.432;6.880;2023-07-08T08:29:00;2.40;;;2.20;;
12059;SDS011;6091;51.432;6.880;2023-07-08T08:31:28;4.18;;;2.53;;
12059;SDS011;6091;51.432;6.880;2023-07-08T08:33:57;2.20;;;2.00;;
12059;SDS011;6091;51.432;6.880;2023-07-08T08:36:24;2.63;;;2.33;;
12059;SDS011;6091;51.432;6.880;2023-07-08T08:38:52;2.67;;;2.25;;
12059;SDS011;6091;51.432;6.880;2023-07-08T08:41:19;3.00;;;2.70;;
12059;SDS011;6091;51.432;6.880;2023-07-08T08:43:57;2.35;;;2.15;;
12059;SDS011;6091;51.432;6.880;2023-07-08T08:49:30;2.45;;;2.25;;
12059;SDS011;6091;51.432;6.880;2023-07-08T08:52:13;2.58;;;2.38;;
12059;SDS011;6091;51.432;6.880;2023-07-08T08:54:41;2.40;;;2.20;;
12059;SDS011;6091;51.432;6.880;2023-07-08T09:00:13;3.05;;;2.67;;
12059;SDS011;6091;51.432;6.880;2023-07-08T09:03:02;3.65;;;2.25;;
12059;SDS011;6091;51.432;6.880;2023-07-08T09:05:38;2.40;;;2.20;;
12059;SDS011;6091;51.432;6.880;2023-07-08T09:08:08;2.75;;;2.10;;
12059;SDS011;6091;51.432;6.880;2023-07-08T09:13:53;3.20;;;2.60;;
12059;SDS011;6091;51.432;6.880;2023-07-08T09:19:26;2.38;;;2.17;;
12059;SDS011;6091;51.432;6.880;2023-07-08T09:27:23;2.95;;;2.40;;
12059;SDS011;6091;51.432;6.880;2023-07-08T09:29:50;2.25;;;2.05;;
12059;SDS011;6091;51.432;6.880;2023-07-08T09:32:21;2.53;;;2.33;;
12059;SDS011;6091;51.432;6.880;2023-07-08T09:34:53;2.38;;;2.25;;
12059;SDS011;6091;51.432;6.880;2023-07-08T09:37:32;2.35;;;2.15;;
12059;SDS011;6091;51.432;6.880;2023-07-08T09:43:02;2.47;;;2.28;;
12059;SDS011;6091;51.432;6.880;2023-07-08T09:45:51;2.35;;;2.15;;
12059;SDS011;6091;51.432;6.880;2023-07-08T09:48:25;2.65;;;2.40;;
12059;SDS011;6091;51.432;6.880;2023-07-08T09:50:58;2.75;;;2.55;;
12059;SDS011;6091;51.432;6.880;2023-07-08T09:53:27;2.80;;;2.60;;
12059;SDS011;6091;51.432;6.880;2023-07-08T09:55:58;3.72;;;2.35;;
12059;SDS011;6091;51.432;6.880;2023-07-08T09:58:30;2.72;;;2.53;;
12059;SDS011;6091;51.432;6.880;2023-07-08T10:01:10;3.08;;;2.80;;
12059;SDS011;6091;51.432;6.880;2023-07-08T10:03:47;4.05;;;2.70;;
12059;SDS011;6091;51.432;6.880;2023-07-08T10:06:22;3.35;;;3.05;;
12059;SDS011;6091;51.432;6.880;2023-07-08T10:08:55;2.88;;;2.50;;
12059;SDS011;6091;51.432;6.880;2023-07-08T10:11:30;3.00;;;2.70;;
12059;SDS011;6091;51.432;6.880;2023-07-08T10:14:29;3.78;;;2.60;;
12059;SDS011;6091;51.432;6.880;2023-07-08T10:17:05;2.38;;;2.17;;
12059;SDS011;6091;51.432;6.880;2023-07-08T10:19:32;3.05;;;2.80;;
12059;SDS011;6091;51.432;6.880;2023-07-08T10:28:36;2.90;;;2.63;;
12059;SDS011;6091;51.432;6.880;2023-07-08T10:37:43;4.10;;;2.47;;
12059;SDS011;6091;51.432;6.880;2023-07-08T10:40:49;5.15;;;2.63;;
12059;SDS011;6091;51.432;6.880;2023-07-08T10:46:10;3.20;;;2.90;;
12059;SDS011;6091;51.432;6.880;2023-07-08T10:49:10;2.90;;;2.70;;
12059;SDS011;6091;51.432;6.880;2023-07-08T10:52:15;3.28;;;2.97;;
12059;SDS011;6091;51.432;6.880;2023-07-08T10:58:25;2.90;;;2.63;;
12059;SDS011;6091;51.432;6.880;2023-07-08T11:10:02;2.63;;;2.42;;
12059;SDS011;6091;51.432;6.880;2023-07-08T11:12:42;2.60;;;2.35;;
12059;SDS011;6091;51.432;6.880;2023-07-08T11:18:11;2.40;;;2.20;;
12059;SDS011;6091;51.432;6.880;2023-07-08T11:20:54;2.40;;;2.15;;
12059;SDS011;6091;51.432;6.880;2023-07-08T11:23:38;2.47;;;2.28;;
12059;SDS011;6091;51.432;6.880;2023-07-08T11:26:30;3.42;;;2.80;;
12059;SDS011;6091;51.432;6.880;2023-07-08T11:29:14;3.10;;;2.80;;
12059;SDS011;6091;51.432;6.880;2023-07-08T11:32:08;3.08;;;2.60;;
12059;SDS011;6091;51.432;6.880;2023-07-08T11:34:44;2.47;;;2.33;;
12059;SDS011;6091;51.432;6.880;2023-07-08T11:37:17;3.08;;;2.78;;
12059;SDS011;6091;51.432;6.880;2023-07-08T11:43:02;2.88;;;2.20;;
12059;SDS011;6091;51.432;6.880;2023-07-08T11:45:35;2.60;;;2.40;;
12059;SDS011;6091;51.432;6.880;2023-07-08T11:48:25;2.42;;;2.22;;
12059;SDS011;6091;51.432;6.880;2023-07-08T11:50:58;2.75;;;2.55;;
12059;SDS011;6091;51.432;6.880;2023-07-08T11:53:36;2.50;;;2.30;;
12059;SDS011;6091;51.432;6.880;2023-07-08T11:59:09;2.30;;;2.20;;
12059;SDS011;6091;51.432;6.880;2023-07-08T12:01:51;1.98;;;1.88;;
12059;SDS011;6091;51.432;6.880;2023-07-08T12:04:31;2.45;;;2.25;;
12059;SDS011;6091;51.432;6.880;2023-07-08T12:07:12;2.83;;;2.22;;
12059;SDS011;6091;51.432;6.880;2023-07-08T12:09:48;2.00;;;1.90;;
12059;SDS011;6091;51.432;6.880;2023-07-08T12:12:34;2.85;;;2.22;;
12059;SDS011;6091;51.432;6.880;2023-07-08T12:18:00;3.28;;;2.10;;
12059;SDS011;6091;51.432;6.880;2023-07-08T12:20:34;2.40;;;2.25;;
12059;SDS011;6091;51.432;6.880;2023-07-08T12:23:11;2.25;;;2.05;;
12059;SDS011;6091;51.432;6.880;2023-07-08T12:25:43;2.38;;;2.00;;
12059;SDS011;6091;51.432;6.880;2023-07-08T12:28:11;2.35;;;2.15;;
12059;SDS011;6091;51.432;6.880;2023-07-08T12:30:39;3.30;;;2.20;;
12059;SDS011;6091;51.432;6.880;2023-07-08T12:33:12;3.53;;;2.53;;
12059;SDS011;6091;51.432;6.880;2023-07-08T12:35:57;3.15;;;2.03;;
12059;SDS011;6091;51.432;6.880;2023-07-08T12:38:29;2.50;;;2.30;;
12059;SDS011;6091;51.432;6.880;2023-07-08T12:41:15;3.25;;;2.35;;
12059;SDS011;6091;51.432;6.880;2023-07-08T12:43:49;2.38;;;2.17;;
12059;SDS011;6091;51.432;6.880;2023-07-08T12:46:17;2.75;;;2.40;;
12059;SDS011;6091;51.432;6.880;2023-07-08T12:48:48;2.30;;;2.10;;
12059;SDS011;6091;51.432;6.880;2023-07-08T12:51:20;2.20;;;2.00;;
12059;SDS011;6091;51.432;6.880;2023-07-08T12:53:51;2.67;;;2.05;;
12059;SDS011;6091;51.432;6.880;2023-07-08T12:56:21;2.22;;;2.03;;
12059;SDS011;6091;51.432;6.880;2023-07-08T12:58:51;2.25;;;2.05;;
12059;SDS011;6091;51.432;6.880;2023-07-08T13:01:23;2.20;;;2.00;;
12059;SDS011;6091;51.432;6.880;2023-07-08T13:04:02;2.88;;;1.95;;
12059;SDS011;6091;51.432;6.880;2023-07-08T13:06:35;2.42;;;2.22;;
12059;SDS011;6091;51.432;6.880;2023-07-08T13:09:14;2.08;;;1.98;;
12059;SDS011;6091;51.432;6.880;2023-07-08T13:11:51;1.77;;;1.67;;
12059;SDS011;6091;51.432;6.880;2023-07-08T13:14:22;2.33;;;1.83;;
12059;SDS011;6091;51.432;6.880;2023-07-08T13:16:52;2.35;;;2.10;;
12059;SDS011;6091;51.432;6.880;2023-07-08T13:19:22;2.50;;;2.30;;
12059;SDS011;6091;51.432;6.880;2023-07-08T13:21:50;2.70;;;2.50;;
12059;SDS011;6091;51.432;6.880;2023-07-08T13:24:17;2.42;;;2.22;;
12059;SDS011;6091;51.432;6.880;2023-07-08T13:26:48;2.13;;;2.03;;
12059;SDS011;6091;51.432;6.880;2023-07-08T13:29:18;3.42;;;2.58;;
12059;SDS011;6091;51.432;6.880;2023-07-08T13:31:48;2.85;;;2.38;;
12059;SDS011;6091;51.432;6.880;2023-07-08T13:34:23;2.70;;;2.00;;
12059;SDS011;6091;51.432;6.880;2023-07-08T13:36:51;2.05;;;1.95;;
12059;SDS011;6091;51.432;6.880;2023-07-08T13:39:27;2.30;;;2.10;;
12059;SDS011;6091;51.432;6.880;2023-07-08T13:41:59;2.35;;;2.15;;
12059;SDS011;6091;51.432;6.880;2023-07-08T13:44:28;2.10;;;1.95;;
12059;SDS011;6091;51.432;6.880;2023-07-08T13:46:57;2.60;;;2.40;;
12059;SDS011;6091;51.432;6.880;2023-07-08T13:52:08;2.20;;;2.00;;
12059;SDS011;6091;51.432;6.880;2023-07-08T13:54:47;2.15;;;2.05;;
12059;SDS011;6091;51.432;6.880;2023-07-08T13:57:31;2.40;;;2.08;;
12059;SDS011;6091;51.432;6.880;2023-07-08T14:00:05;2.30;;;2.10;;
12059;SDS011;6091;51.432;6.880;2023-07-08T14:02:34;2.20;;;2.00;;
12059;SDS011;6091;51.432;6.880;2023-07-08T14:05:02;2.28;;;2.08;;
12059;SDS011;6091;51.432;6.880;2023-07-08T14:07:32;2.10;;;2.00;;
12059;SDS011;6091;51.432;6.880;2023-07-08T14:10:00;2.15;;;2.00;;
12059;SDS011;6091;51.432;6.880;2023-07-08T14:12:34;2.70;;;2.13;;
12059;SDS011;6091;51.432;6.880;2023-07-08T14:15:01;2.38;;;2.17;;
12059;SDS011;6091;51.432;6.880;2023-07-08T14:17:28;2.15;;;1.95;;
12059;SDS011;6091;51.432;6.880;2023-07-08T14:19:55;2.50;;;2.30;;
12059;SDS011;6091;51.432;6.880;2023-07-08T14:22:27;2.03;;;1.92;;
12059;SDS011;6091;51.432;6.880;2023-07-08T14:25:00;1.77;;;1.67;;
12059;SDS011;6091;51.432;6.880;2023-07-08T14:27:34;2.10;;;2.00;;
12059;SDS011;6091;51.432;6.880;2023-07-08T14:30:01;2.47;;;2.28;;
12059;SDS011;6091;51.432;6.880;2023-07-08T14:32:29;2.80;;;1.80;;
12059;SDS011;6091;51.432;6.880;2023-07-08T14:34:59;2.00;;;1.80;;
12059;SDS011;6091;51.432;6.880;2023-07-08T14:37:41;2.88;;;2.17;;
12059;SDS011;6091;51.432;6.880;2023-07-08T14:40:26;3.25;;;2.30;;
12059;SDS011;6091;51.432;6.880;2023-07-08T14:43:04;4.28;;;2.30;;
12059;SDS011;6091;51.432;6.880;2023-07-08T14:45:41;3.30;;;2.42;;
12059;SDS011;6091;51.432;6.880;2023-07-08T14:48:17;5.65;;;2.95;;
12059;SDS011;6091;51.432;6.880;2023-07-08T14:50:44;6.80;;;2.78;;
12059;SDS011;6091;51.432;6.880;2023-07-08T14:53:15;3.60;;;2.17;;
12059;SDS011;6091;51.432;6.880;2023-07-08T14:55:56;4.07;;;2.60;;
12059;SDS011;6091;51.432;6.880;2023-07-08T14:58:26;2.97;;;2.40;;
12059;SDS011;6091;51.432;6.880;2023-07-08T15:00:59;5.30;;;2.22;;
12059;SDS011;6091;51.432;6.880;2023-07-08T15:03:37;3.13;;;2.20;;
12059;SDS011;6091;51.432;6.880;2023-07-08T15:06:08;3.25;;;1.95;;
12059;SDS011;6091;51.432;6.880;2023-07-08T15:08:38;3.92;;;2.30;;
12059;SDS011;6091;51.432;6.880;2023-07-08T15:11:08;2.50;;;2.30;;
12059;SDS011;6091;51.432;6.880;2023-07-08T15:13:38;3.75;;;2.20;;
12059;SDS011;6091;51.432;6.880;2023-07-08T15:16:10;3.70;;;2.20;;
12059;SDS011;6091;51.432;6.880;2023-07-08T15:18:41;3.67;;;2.42;;
12059;SDS011;6091;51.432;6.880;2023-07-08T15:21:11;3.20;;;1.98;;
12059;SDS011;6091;51.432;6.880;2023-07-08T15:23:39;5.43;;;2.33;;
12059;SDS011;6091;51.432;6.880;2023-07-08T15:26:10;2.38;;;2.17;;
12059;SDS011;6091;51.432;6.880;2023-07-08T15:28:49;2.90;;;2.22;;
12059;SDS011;6091;51.432;6.880;2023-07-08T15:31:18;2.42;;;2.10;;
12059;SDS011;6091;51.432;6.880;2023-07-08T15:33:51;5.75;;;2.53;;
12059;SDS011;6091;51.432;6.880;2023-07-08T15:36:19;4.93;;;2.45;;
12059;SDS011;6091;51.432;6.880;2023-07-08T15:38:46;2.78;;;2.20;;
12059;SDS011;6091;51.432;6.880;2023-07-08T15:41:24;4.88;;;2.13;;
12059;SDS011;6091;51.432;6.880;2023-07-08T15:43:53;2.30;;;1.85;;
12059;SDS011;6091;51.432;6.880;2023-07-08T15:46:25;2.50;;;2.30;;
12059;SDS011;6091;51.432;6.880;2023-07-08T15:49:00;2.97;;;2.20;;
12059;SDS011;6091;51.432;6.880;2023-07-08T15:51:36;2.50;;;2.17;;
12059;SDS011;6091;51.432;6.880;2023-07-08T15:54:03;2.60;;;2.25;;
12059;SDS011;6091;51.432;6.880;2023-07-08T15:56:30;2.97;;;2.20;;
12059;SDS011;6091;51.432;6.880;2023-07-08T15:58:57;5.40;;;2.88;;
12059;SDS011;6091;51.432;6.880;2023-07-08T16:01:24;2.38;;;2.17;;
12059;SDS011;6091;51.432;6.880;2023-07-08T16:03:52;2.83;;;2.40;;
12059;SDS011;6091;51.432;6.880;2023-07-08T16:06:19;3.33;;;2.22;;
12059;SDS011;6091;51.432;6.880;2023-07-08T16:08:46;3.80;;;2.53;;
12059;SDS011;6091;51.432;6.880;2023-07-08T16:11:28;4.82;;;2.30;;
12059;SDS011;6091;51.432;6.880;2023-07-08T16:13:57;2.83;;;2.53;;
12059;SDS011;6091;51.432;6.880;2023-07-08T16:16:25;1.95;;;1.70;;
12059;SDS011;6091;51.432;6.880;2023-07-08T16:18:52;3.17;;;2.40;;
12059;SDS011;6091;51.432;6.880;2023-07-08T16:21:22;3.83;;;2.30;;
12059;SDS011;6091;51.432;6.880;2023-07-08T16:23:49;3.10;;;2.30;;
12059;SDS011;6091;51.432;6.880;2023-07-08T16:26:16;3.00;;;2.20;;
12059;SDS011;6091;51.432;6.880;2023-07-08T16:28:43;3.78;;;2.40;;
12059;SDS011;6091;51.432;6.880;2023-07-08T16:31:16;3.85;;;2.40;;
12059;SDS011;6091;51.432;6.880;2023-07-08T16:33:47;2.15;;;2.03;;
12059;SDS011;6091;51.432;6.880;2023-07-08T16:36:16;3.40;;;2.40;;
12059;SDS011;6091;51.432;6.880;2023-07-08T16:38:49;3.00;;;2.30;;
12059;SDS011;6091;51.432;6.880;2023-07-08T16:41:18;1.92;;;1.83;;
12059;SDS011;6091;51.432;6.880;2023-07-08T16:43:49;4.75;;;2.95;;